Archival Weather

Greater Kankakee

Kankakee, Illinois (KIKK)

Report from: Tuesday, June 6, 2023 5:15 AM CDT
Current time: Saturday, July 13, 2024 7:49 PM CDT

Current weather – Weather history – Daily summaries
Weather forecast

Temperature14.9°C (58.8°F)
Dew point7.9°C (46.2°F)
Winds Calm
Visibility10 mi. (16.1 km)
Clouds Scattered clouds 8,000 ft. (2,438 m)
Altimeter30.01 in.Hg (1016 mB)
Relative humidity63 %
Density altitude40 ft. (12 m)
Remarks Fully automated report
Automated weather observing station with precipitation discriminator
Present weather sensor not operating
Flight conditions Visual Meteorological Conditions
Raw dataKIKK 061015Z AUTO 00000KT 10SM SCT080 15/08 A3001 RMK AO2 T01490079 PWINO
An error has occurred. This application may no longer respond until reloaded. Reload 🗙